Time;durP1;ratioP1;P1;durP2;ratioP2;P2;SDS_P1;SDS_P2;PMS_P1;PMS_P2;Temp;Humidity;BMP_temperature;BMP_pressure;BME280_temperature;BME280_humidity;BME280_pressure;Samples;Min_cycle;Max_cycle;Signal;HPM_P1;HPM_P2
2021/10/15 00:02:27;;;;;;;18.32;11.97;;;;;;;0.86;87.47;101330.29;1721417;81;21176;-70
2021/10/15 00:04:54;;;;;;;19.12;12.78;;;;;;;0.84;87.58;101330.45;1727303;81;21582;-71
2021/10/15 00:07:21;;;;;;;19.98;13.00;;;;;;;0.81;87.62;101329.97;1726301;80;21070;-73
2021/10/15 00:09:48;;;;;;;18.57;12.35;;;;;;;0.81;87.61;101328.66;1714735;81;21015;-71
2021/10/15 00:12:17;;;;;;;22.70;13.05;;;;;;;0.80;87.62;101323.09;1721124;80;21053;-71
2021/10/15 00:14:52;;;;;;;20.27;13.35;;;;;;;0.80;87.60;101327.84;1716472;81;21117;-72
2021/10/15 00:17:25;;;;;;;17.00;11.80;;;;;;;0.79;87.60;101328.00;1716395;81;21038;-77
2021/10/15 00:19:53;;;;;;;17.82;11.73;;;;;;;0.79;87.57;101325.37;1730439;80;21811;-73
2021/10/15 00:22:20;;;;;;;21.62;12.55;;;;;;;0.77;87.53;101325.56;1734558;81;21615;-72
2021/10/15 00:24:47;;;;;;;18.75;12.30;;;;;;;0.76;87.46;101318.67;1722202;80;21070;-72
2021/10/15 00:27:16;;;;;;;19.35;12.75;;;;;;;0.73;87.41;101315.08;1723256;81;21110;-72
2021/10/15 00:29:43;;;;;;;19.98;12.80;;;;;;;0.68;87.48;101320.83;1714552;81;21050;-72
2021/10/15 00:32:17;;;;;;;19.67;12.60;;;;;;;0.66;87.58;101318.08;1722147;81;21091;-72
2021/10/15 00:34:45;;;;;;;21.57;14.13;;;;;;;0.63;87.61;101317.11;1719832;81;21085;-72
2021/10/15 00:37:12;;;;;;;19.57;12.70;;;;;;;0.59;87.76;101314.01;1724070;80;21584;-73
2021/10/15 00:39:40;;;;;;;17.27;12.43;;;;;;;0.58;87.88;101312.34;1734188;80;22162;-73
2021/10/15 00:42:07;;;;;;;19.25;12.55;;;;;;;0.57;87.90;101308.09;1732252;81;21148;-73
2021/10/15 00:44:41;;;;;;;19.30;12.28;;;;;;;0.56;87.93;101314.35;1733285;80;21429;-73
2021/10/15 00:47:08;;;;;;;19.00;12.65;;;;;;;0.51;88.00;101311.91;1715601;80;21134;-73
2021/10/15 00:49:36;;;;;;;19.05;12.63;;;;;;;0.48;88.07;101314.38;1721623;81;21608;-73
2021/10/15 00:52:05;;;;;;;19.05;11.68;;;;;;;0.45;88.12;101312.91;1735658;81;21201;-72
2021/10/15 00:54:32;;;;;;;19.12;12.40;;;;;;;0.44;88.24;101315.22;1685786;81;21113;-73
2021/10/15 00:57:00;;;;;;;19.12;12.43;;;;;;;0.43;88.41;101315.41;1716902;81;21091;-72
2021/10/15 00:59:26;;;;;;;18.00;12.45;;;;;;;0.44;88.51;101320.48;1724322;80;21688;-73
2021/10/15 01:01:53;;;;;;;17.85;11.35;;;;;;;0.44;88.57;101318.34;1722216;81;21035;-73
2021/10/15 01:04:28;;;;;;;19.50;11.60;;;;;;;0.43;88.59;101314.91;1728682;80;21884;-73
2021/10/15 01:07:02;;;;;;;20.80;13.08;;;;;;;0.39;88.62;101308.33;1725232;81;21138;-71
2021/10/15 01:09:43;;;;;;;18.32;12.43;;;;;;;0.38;88.67;101307.20;1708832;81;21145;-71
2021/10/15 01:12:11;;;;;;;18.65;12.18;;;;;;;0.38;88.70;101313.77;1719472;81;21153;-71
2021/10/15 01:14:49;;;;;;;16.57;11.55;;;;;;;0.36;88.75;101317.90;1720566;80;21142;-73
2021/10/15 01:17:23;;;;;;;17.15;12.15;;;;;;;0.34;88.67;101308.05;1725876;81;21352;-73
2021/10/15 01:20:03;;;;;;;16.27;11.80;;;;;;;0.32;88.60;101318.39;1722642;80;21086;-73
2021/10/15 01:22:37;;;;;;;16.12;11.85;;;;;;;0.30;88.57;101316.45;1723209;80;21128;-73
2021/10/15 01:25:09;;;;;;;19.07;12.50;;;;;;;0.28;88.54;101313.97;1723481;81;21127;-72
2021/10/15 01:27:40;;;;;;;18.80;12.28;;;;;;;0.28;88.60;101310.53;1780874;79;21511;-73
2021/10/15 01:30:31;;;;;;;16.93;12.37;;;;;;;0.28;88.56;101303.96;1770987;79;21091;-71
2021/10/15 01:33:00;;;;;;;15.80;11.40;;;;;;;0.26;88.57;101301.49;1770939;79;21065;-71
2021/10/15 01:35:28;;;;;;;16.82;11.38;;;;;;;0.24;88.57;101303.48;1783962;79;21054;-72
2021/10/15 01:37:54;;;;;;;17.12;11.15;;;;;;;0.20;88.57;101300.89;1789776;79;21052;-72
2021/10/15 01:40:22;;;;;;;15.25;10.18;;;;;;;0.14;88.61;101301.06;1783204;79;21113;-72
2021/10/15 01:42:55;;;;;;;16.50;10.75;;;;;;;0.10;88.67;101300.23;1780228;78;21650;-72
2021/10/15 01:45:28;;;;;;;15.13;10.90;;;;;;;0.06;88.80;101298.95;1744357;80;21447;-72
2021/10/15 01:47:56;;;;;;;15.03;11.30;;;;;;;0.04;88.89;101299.13;1722144;82;21146;-71
2021/10/15 01:50:25;;;;;;;15.65;10.38;;;;;;;0.04;88.92;101304.39;1711286;82;21040;-75
2021/10/15 01:52:52;;;;;;;16.37;11.97;;;;;;;0.01;88.98;101298.16;1695528;82;21106;-73
2021/10/15 01:55:20;;;;;;;16.70;11.60;;;;;;;0.03;89.05;101305.84;1727650;82;21514;-72
2021/10/15 01:57:47;;;;;;;17.95;12.58;;;;;;;0.05;89.07;101303.39;1778099;79;21125;-72
2021/10/15 02:00:15;;;;;;;19.05;12.98;;;;;;;0.07;89.09;101306.67;1780632;78;21206;-72
2021/10/15 02:02:44;;;;;;;20.05;13.32;;;;;;;0.09;89.06;101307.80;1783632;79;21125;-71
2021/10/15 02:05:15;;;;;;;16.65;11.97;;;;;;;0.08;89.00;101309.62;1737547;80;21617;-71
2021/10/15 02:07:46;;;;;;;17.05;12.18;;;;;;;0.06;88.98;101310.77;1722337;81;22031;-71
2021/10/15 02:10:16;;;;;;;19.20;12.43;;;;;;;0.02;88.98;101315.54;1728747;81;21058;-72
2021/10/15 02:12:43;;;;;;;18.25;12.07;;;;;;;-0.02;88.98;101314.25;1713863;81;21974;-71
2021/10/15 02:15:12;;;;;;;17.85;12.33;;;;;;;-0.05;88.99;101315.89;1711790;81;21065;-71
2021/10/15 02:17:39;;;;;;;16.52;11.40;;;;;;;-0.10;88.99;101315.56;1718965;81;21687;-72
2021/10/15 02:20:08;;;;;;;16.05;11.48;;;;;;;-0.15;89.00;101317.89;1731321;80;21010;-72
2021/10/15 02:22:38;;;;;;;17.27;11.73;;;;;;;-0.20;89.03;101317.06;1723428;80;21078;-73
2021/10/15 02:25:08;;;;;;;18.07;13.20;;;;;;;-0.22;89.09;101313.81;1726457;81;21506;-72
2021/10/15 02:27:40;;;;;;;;;;;;;;;-0.24;89.13;101319.70;1733512;80;21105;-72
2021/10/15 02:30:11;;;;;;;17.60;11.70;;;;;;;-0.27;89.16;101318.23;1718192;81;20270;-72
2021/10/15 02:32:43;;;;;;;15.58;11.15;;;;;;;-0.30;89.18;101317.74;1725045;81;21174;-74
2021/10/15 02:35:11;;;;;;;17.98;13.40;;;;;;;-0.33;89.24;101314.14;1722313;82;20980;-72
2021/10/15 02:37:40;;;;;;;20.72;13.10;;;;;;;-0.35;89.26;101314.32;1730088;80;21003;-72
2021/10/15 02:40:09;;;;;;;19.82;13.15;;;;;;;-0.32;89.32;101312.67;1723563;80;21046;-73
2021/10/15 02:42:36;;;;;;;18.32;11.43;;;;;;;-0.30;89.31;101307.24;1729408;81;21094;-73
2021/10/15 02:45:03;;;;;;;19.25;13.08;;;;;;;-0.31;89.31;101310.86;1728478;81;21142;-73
2021/10/15 02:47:31;;;;;;;18.07;12.95;;;;;;;-0.33;89.38;101303.17;1723951;81;21060;-72
2021/10/15 02:50:06;;;;;;;21.07;14.15;;;;;;;-0.32;89.42;101307.92;1743956;80;21075;-72
2021/10/15 02:52:34;;;;;;;17.77;12.78;;;;;;;-0.31;89.49;101313.48;1739648;80;21597;-72
2021/10/15 02:55:02;;;;;;;19.23;13.35;;;;;;;-0.30;89.50;101306.74;1712724;82;21562;-73
2021/10/15 02:57:31;;;;;;;20.50;13.38;;;;;;;-0.26;89.50;101314.64;1703070;82;21048;-73
2021/10/15 03:00:00;;;;;;;19.55;14.25;;;;;;;-0.26;89.46;101313.33;1777934;79;21495;-73
2021/10/15 03:02:29;;;;;;;18.52;13.62;;;;;;;-0.24;89.48;101308.70;1782270;78;21168;-73
2021/10/15 03:05:03;;;;;;;18.10;13.00;;;;;;;-0.22;89.48;101314.30;1785398;79;21651;-73
2021/10/15 03:07:31;;;;;;;20.15;13.53;;;;;;;-0.21;89.49;101319.38;1780804;79;21142;-73
2021/10/15 03:09:58;;;;;;;19.32;13.65;;;;;;;-0.17;89.49;101315.91;1741489;80;22346;-72
2021/10/15 03:12:25;;;;;;;19.70;13.78;;;;;;;-0.16;89.47;101319.70;1740188;80;21027;-72
2021/10/15 03:14:55;;;;;;;18.95;13.00;;;;;;;-0.17;89.46;101315.42;1747367;80;21586;-73
2021/10/15 03:17:22;;;;;;;19.60;14.03;;;;;;;-0.17;89.49;101317.23;1740332;80;21031;-72
2021/10/15 03:19:49;;;;;;;22.80;16.05;;;;;;;-0.17;89.44;101315.91;1748245;80;21058;-73
2021/10/15 03:22:16;;;;;;;22.90;15.28;;;;;;;-0.16;89.50;101314.45;1741075;80;21862;-72
2021/10/15 03:24:44;;;;;;;22.82;15.43;;;;;;;-0.13;89.53;101322.00;1742463;80;21086;-72
2021/10/15 03:27:10;;;;;;;23.25;15.40;;;;;;;-0.09;89.56;101318.54;1742477;80;21610;-73
2021/10/15 03:29:37;;;;;;;19.52;13.60;;;;;;;-0.05;89.56;101324.59;1732181;80;22289;-72
2021/10/15 03:32:04;;;;;;;18.80;12.35;;;;;;;-0.05;89.51;101322.46;1708595;82;21152;-73
2021/10/15 03:34:32;;;;;;;18.80;12.65;;;;;;;-0.09;89.53;101317.23;1781383;79;21970;-73
2021/10/15 03:36:59;;;;;;;16.25;11.53;;;;;;;-0.12;89.58;101310.50;1786887;79;21050;-72
2021/10/15 03:39:26;;;;;;;17.32;12.28;;;;;;;-0.15;89.58;101300.83;1777615;78;21416;-73
2021/10/15 03:41:54;;;;;;;18.00;12.25;;;;;;;-0.19;89.64;101300.34;1751609;80;21125;-73
2021/10/15 03:44:21;;;;;;;17.00;12.15;;;;;;;-0.19;89.66;101309.53;1724060;81;21591;-73
2021/10/15 03:46:48;;;;;;;17.70;12.43;;;;;;;-0.18;89.65;101306.41;1722302;81;21765;-72
2021/10/15 03:49:15;;;;;;;16.57;11.45;;;;;;;-0.18;89.62;101307.72;1720406;81;21195;-71
2021/10/15 03:51:42;;;;;;;18.52;12.75;;;;;;;-0.21;89.59;101317.25;1787143;78;21067;-72
2021/10/15 03:54:11;;;;;;;18.00;12.60;;;;;;;-0.24;89.62;101313.95;1745515;80;21092;-72
2021/10/15 03:56:38;;;;;;;18.30;13.15;;;;;;;-0.22;89.64;101321.68;1713624;81;21084;-72
2021/10/15 03:59:05;;;;;;;17.70;12.98;;;;;;;-0.21;89.60;101321.19;1774223;79;21503;-72
2021/10/15 04:01:38;;;;;;;18.40;12.95;;;;;;;-0.20;89.58;101322.31;1760983;79;21882;-72
2021/10/15 04:04:05;;;;;;;19.00;13.35;;;;;;;-0.20;89.53;101322.81;1774737;79;21147;-73
2021/10/15 04:06:33;;;;;;;20.68;13.80;;;;;;;-0.20;89.54;101318.88;1786696;79;21558;-73
2021/10/15 04:09:01;;;;;;;19.77;13.85;;;;;;;-0.21;89.49;101317.25;1738280;80;21143;-74
2021/10/15 04:11:27;;;;;;;21.97;15.23;;;;;;;-0.21;89.51;101320.69;1721896;82;21115;-73
2021/10/15 04:13:54;;;;;;;23.15;16.05;;;;;;;-0.18;89.57;101311.66;1717648;82;21097;-73
2021/10/15 04:16:21;;;;;;;23.00;16.27;;;;;;;-0.17;89.62;101310.67;1716883;81;21049;-73
2021/10/15 04:18:50;;;;;;;22.27;15.90;;;;;;;-0.14;89.64;101319.52;1721465;82;21115;-74
2021/10/15 04:21:18;;;;;;;24.20;16.50;;;;;;;-0.13;89.63;101335.13;1719032;81;21679;-74
2021/10/15 04:23:51;;;;;;;25.80;16.82;;;;;;;-0.13;89.65;101336.91;1721205;81;21989;-74
2021/10/15 04:26:20;;;;;;;24.87;16.25;;;;;;;-0.12;89.70;101334.63;1767128;79;21052;-73
2021/10/15 04:28:53;;;;;;;23.70;16.40;;;;;;;-0.09;89.81;101336.92;1790682;79;21557;-73
2021/10/15 04:31:23;;;;;;;26.77;17.62;;;;;;;-0.04;89.88;101345.09;1778533;78;21011;-72
2021/10/15 04:33:52;;;;;;;23.27;16.30;;;;;;;-0.01;89.93;101338.20;1783976;78;20999;-73
2021/10/15 04:36:24;;;;;;;25.35;18.00;;;;;;;0.02;90.00;101335.23;1779355;78;21143;-73
2021/10/15 04:38:57;;;;;;;22.37;15.53;;;;;;;0.08;90.10;101333.75;1757080;80;21032;-73
2021/10/15 04:41:27;;;;;;;22.10;15.70;;;;;;;0.14;90.25;101337.84;1783933;79;22366;-72
2021/10/15 04:44:04;;;;;;;22.60;15.48;;;;;;;0.15;90.38;101326.33;1772208;79;21075;-72
2021/10/15 04:46:35;;;;;;;23.30;14.63;;;;;;;0.25;90.58;101329.27;1774274;79;21646;-72
2021/10/15 04:49:11;;;;;;;24.90;15.93;;;;;;;0.33;90.72;101341.89;1780983;79;21138;-73
2021/10/15 04:51:51;;;;;;;24.63;16.42;;;;;;;0.43;90.86;101345.63;1734850;80;21066;-73
2021/10/15 04:54:31;;;;;;;22.35;15.65;;;;;;;0.56;90.96;101347.20;1712617;81;21196;-73
2021/10/15 04:57:07;;;;;;;26.15;16.80;;;;;;;0.72;91.05;101350.73;1775514;79;21620;-73
2021/10/15 04:59:58;;;;;;;27.22;17.42;;;;;;;0.84;91.17;101348.85;1779016;78;21105;-72
2021/10/15 05:02:52;;;;;;;23.20;15.63;;;;;;;0.97;91.24;101346.16;1765509;79;22447;-73
2021/10/15 05:05:43;;;;;;;25.02;17.00;;;;;;;1.09;91.27;101346.09;1784011;78;21053;-73
2021/10/15 05:08:21;;;;;;;27.22;18.90;;;;;;;1.19;91.33;101336.64;1746315;79;21459;-73
2021/10/15 05:10:50;;;;;;;27.93;18.73;;;;;;;1.30;91.37;101340.16;1778894;79;21050;-73
2021/10/15 05:13:20;;;;;;;30.48;18.90;;;;;;;1.40;91.39;101342.87;1760845;80;21110;-73
2021/10/15 05:16:00;;;;;;;29.52;19.30;;;;;;;1.52;91.46;101339.33;1709764;80;21071;-73
2021/10/15 05:18:40;;;;;;;27.42;18.23;;;;;;;1.65;91.47;101342.67;1737989;80;21117;-74
2021/10/15 05:21:16;;;;;;;31.15;19.75;;;;;;;1.76;91.45;101333.00;1738636;80;22242;-73
2021/10/15 05:23:57;;;;;;;33.75;20.20;;;;;;;1.88;91.46;101337.34;1695926;83;21133;-73
2021/10/15 05:26:38;;;;;;;37.67;22.42;;;;;;;1.97;91.45;101338.87;1734912;81;21128;-74
2021/10/15 05:29:17;;;;;;;35.03;21.60;;;;;;;2.07;91.43;101344.72;1725328;81;21226;-73
2021/10/15 05:31:55;;;;;;;30.62;20.15;;;;;;;2.21;91.48;101352.81;1717891;81;20984;-73
2021/10/15 05:34:31;;;;;;;31.95;21.60;;;;;;;2.32;91.52;101353.16;1698531;81;21024;-73
2021/10/15 05:37:10;;;;;;;35.68;22.30;;;;;;;2.45;91.58;101357.78;1701641;82;21059;-72
2021/10/15 05:39:50;;;;;;;36.45;24.32;;;;;;;2.58;91.69;101357.95;1718455;81;21016;-73
2021/10/15 05:42:32;;;;;;;40.75;25.95;;;;;;;2.71;91.82;101351.20;1727462;81;21799;-72
2021/10/15 05:45:14;;;;;;;39.33;25.23;;;;;;;2.88;91.90;101347.33;1723544;81;21105;-73
2021/10/15 05:47:56;;;;;;;41.00;25.65;;;;;;;3.05;91.97;101350.55;1722082;81;21074;-72
2021/10/15 05:50:32;;;;;;;37.53;24.07;;;;;;;3.22;92.01;101348.47;1723992;81;21207;-72
2021/10/15 05:53:09;;;;;;;40.05;24.92;;;;;;;3.39;92.02;101349.87;1735274;81;21576;-73
2021/10/15 05:56:08;;;;;;;38.38;24.10;;;;;;;3.55;92.02;101343.98;1779972;79;21152;-72
2021/10/15 05:58:53;;;;;;;37.88;25.65;;;;;;;3.69;92.00;101345.73;1758056;79;21074;-72
2021/10/15 06:01:32;;;;;;;37.55;24.72;;;;;;;3.85;91.94;101345.45;1758297;78;21035;-72
2021/10/15 06:16:25;;;;;;;34.92;23.35;;;;;;;4.36;91.24;101349.59;1742185;80;21055;-71
2021/10/15 06:19:28;;;;;;;32.48;22.05;;;;;;;4.41;91.01;101349.84;1722829;81;21343;-71
2021/10/15 06:22:22;;;;;;;34.53;23.00;;;;;;;4.48;90.82;101345.90;1730111;80;21047;-71
2021/10/15 06:25:11;;;;;;;33.15;21.70;;;;;;;4.55;90.52;101350.19;1770575;80;21360;-72
2021/10/15 06:28:01;;;;;;;36.03;22.48;;;;;;;4.60;90.27;101349.59;1745422;80;21127;-75
2021/10/15 06:30:56;;;;;;;32.85;21.73;;;;;;;4.65;90.16;101351.15;1721862;81;20960;-73
2021/10/15 06:33:55;;;;;;;31.85;21.90;;;;;;;4.72;89.92;101349.33;1729229;81;21090;-74
2021/10/15 06:36:49;;;;;;;31.45;22.32;;;;;;;4.78;89.71;101349.05;1703914;81;21044;-75
2021/10/15 06:39:38;;;;;;;32.30;21.62;;;;;;;4.84;89.56;101350.91;1736185;80;21654;-75
2021/10/15 06:42:21;;;;;;;36.83;24.52;;;;;;;4.89;89.47;101349.28;1731694;81;21012;-74
2021/10/15 06:45:00;;;;;;;33.60;24.20;;;;;;;4.98;89.41;101340.66;1759361;80;21078;-74
2021/10/15 06:47:43;;;;;;;34.90;23.60;;;;;;;5.06;89.36;101343.61;1718855;80;21055;-75
2021/10/15 06:50:22;;;;;;;32.50;22.07;;;;;;;5.16;89.36;101336.90;1720748;81;21063;-74
2021/10/15 06:52:57;;;;;;;32.67;22.27;;;;;;;5.27;89.29;101327.56;1735479;81;21258;-74
2021/10/15 06:55:32;;;;;;;30.57;21.68;;;;;;;5.37;89.23;101333.27;1733754;81;21070;-74
2021/10/15 06:58:12;;;;;;;31.10;20.97;;;;;;;5.51;89.17;101333.27;1781564;78;21018;-74
2021/10/15 07:27:38;;;;;;;24.98;17.60;;;;;;;7.13;85.69;101328.34;1792415;77;21091;-71
2021/10/15 07:30:06;;;;;;;23.60;18.45;;;;;;;7.32;85.01;101331.08;1811342;78;21081;-71
2021/10/15 07:32:34;;;;;;;22.93;17.25;;;;;;;7.47;84.68;101321.76;1802793;79;21114;-71
2021/10/15 07:35:04;;;;;;;20.62;15.88;;;;;;;7.65;84.21;101320.98;1807567;77;21064;-71
2021/10/15 07:37:31;;;;;;;21.52;16.15;;;;;;;7.83;83.49;101312.72;1804199;77;21172;-72
2021/10/15 07:39:58;;;;;;;19.27;14.55;;;;;;;7.99;82.89;101309.48;1791177;77;20957;-70
2021/10/15 07:42:26;;;;;;;18.67;14.93;;;;;;;8.15;82.17;101306.23;1795935;77;22280;-71
2021/10/15 07:44:54;;;;;;;19.75;15.13;;;;;;;8.33;81.70;101308.61;1807831;79;21011;-71
2021/10/15 07:47:21;;;;;;;17.48;13.65;;;;;;;8.50;80.48;101304.84;1798615;78;20991;-71
2021/10/15 07:49:48;;;;;;;16.37;13.22;;;;;;;8.63;79.77;101308.15;1780504;79;23271;-71
2021/10/15 07:52:15;;;;;;;18.25;13.50;;;;;;;8.78;78.81;101306.39;1801896;78;21105;-72
2021/10/15 07:54:42;;;;;;;16.10;12.28;;;;;;;8.92;78.01;101304.37;1715705;81;21007;-70
2021/10/15 07:57:12;;;;;;;15.83;12.60;;;;;;;9.10;76.96;101300.29;1728232;80;21118;-70
2021/10/15 07:59:37;;;;;;;15.80;12.58;;;;;;;9.25;76.09;101301.73;1727991;81;21006;-71
2021/10/15 08:02:04;;;;;;;14.87;11.65;;;;;;;9.43;75.00;101301.61;1751597;80;21117;-71
2021/10/15 08:04:31;;;;;;;14.85;11.03;;;;;;;9.59;73.74;101302.27;1717381;82;20954;-71
2021/10/15 08:06:58;;;;;;;12.40;10.20;;;;;;;9.76;72.73;101296.23;1742489;80;21503;-70
2021/10/15 08:09:24;;;;;;;13.18;10.45;;;;;;;9.93;71.34;101296.32;1744573;81;21066;-70
2021/10/15 08:11:56;;;;;;;14.53;11.25;;;;;;;10.08;70.85;101292.65;1727597;82;21012;-71
2021/10/15 08:14:23;;;;;;;14.33;11.57;;;;;;;10.25;70.37;101293.53;1740828;80;21172;-70
2021/10/15 08:16:51;;;;;;;12.58;9.53;;;;;;;10.41;69.76;101294.67;1736223;80;21076;-70
2021/10/15 08:19:19;;;;;;;13.50;10.43;;;;;;;10.55;68.93;101290.66;1749159;79;21598;-71
2021/10/15 08:21:48;;;;;;;14.98;11.45;;;;;;;10.67;68.17;101290.63;1748589;79;21532;-71
2021/10/15 08:24:24;;;;;;;14.20;11.22;;;;;;;10.82;67.70;101286.07;1754288;80;21645;-71
2021/10/15 08:26:51;;;;;;;13.45;10.63;;;;;;;10.90;67.21;101283.02;1749912;81;21148;-71
2021/10/15 08:29:20;;;;;;;12.97;10.20;;;;;;;11.01;66.34;101281.32;1747468;80;21042;-70
2021/10/15 08:31:47;;;;;;;12.87;10.00;;;;;;;11.09;65.83;101277.43;1742906;80;21776;-71
2021/10/15 08:34:17;;;;;;;14.00;10.50;;;;;;;11.19;65.42;101274.95;1733296;81;21349;-71
2021/10/15 08:36:45;;;;;;;13.23;9.47;;;;;;;11.29;64.88;101273.77;1731560;80;21772;-71
2021/10/15 08:39:16;;;;;;;13.77;9.80;;;;;;;11.39;64.34;101265.89;1723719;82;21415;-72
2021/10/15 08:41:41;;;;;;;11.13;9.03;;;;;;;11.50;63.78;101269.52;1730982;80;21302;-71
2021/10/15 08:44:08;;;;;;;11.90;9.67;;;;;;;11.59;63.15;101259.22;1746761;81;21749;-71
2021/10/15 08:46:36;;;;;;;11.87;9.23;;;;;;;11.68;62.05;101257.72;1749548;81;21280;-71
2021/10/15 08:49:03;;;;;;;10.40;8.00;;;;;;;11.73;61.43;101260.48;1747184;80;21284;-73
2021/10/15 08:51:31;;;;;;;11.53;8.53;;;;;;;11.80;60.95;101249.06;1738382;80;21919;-73
2021/10/15 08:54:00;;;;;;;12.27;8.40;;;;;;;11.90;59.91;101249.75;1721310;81;21356;-74
2021/10/15 08:56:31;;;;;;;11.97;9.37;;;;;;;11.95;59.05;101243.94;1742786;80;21377;-73
2021/10/15 08:59:00;;;;;;;12.80;9.13;;;;;;;12.05;59.57;101250.48;1741195;81;21591;-73
2021/10/15 09:01:29;;;;;;;11.40;8.93;;;;;;;12.17;59.25;101243.11;1739168;80;21672;-74
2021/10/15 09:04:04;;;;;;;11.33;8.17;;;;;;;12.30;58.76;101246.73;1750194;81;21766;-74
2021/10/15 09:06:42;;;;;;;10.00;7.83;;;;;;;12.42;58.12;101248.75;1740479;80;21386;-73
2021/10/15 09:09:11;;;;;;;11.50;8.27;;;;;;;12.54;57.50;101242.45;1749214;81;21232;-73
2021/10/15 09:11:41;;;;;;;11.03;7.93;;;;;;;12.66;56.34;101237.72;1738728;81;21369;-74
2021/10/15 09:14:24;;;;;;;10.67;7.70;;;;;;;12.72;55.53;101240.73;1751739;81;21246;-74
2021/10/15 09:17:06;;;;;;;11.27;7.43;;;;;;;12.78;55.02;101242.94;1737758;80;21341;-74
2021/10/15 09:19:46;;;;;;;9.03;6.50;;;;;;;12.80;54.11;101231.41;1746949;80;21351;-74
2021/10/15 09:22:29;;;;;;;10.15;7.60;;;;;;;12.82;54.19;101233.31;1739087;80;21805;-73
2021/10/15 09:25:08;;;;;;;;;;;;;;;12.88;54.33;101233.10;1732259;81;21176;-74
2021/10/15 09:27:40;;;;;;;8.70;6.43;;;;;;;13.02;54.07;101234.02;1750544;81;20445;-74
2021/10/15 09:30:14;;;;;;;8.88;6.95;;;;;;;13.09;52.73;101232.72;1733784;80;21275;-75
2021/10/15 09:32:47;;;;;;;11.73;7.83;;;;;;;13.13;53.07;101230.36;1763408;79;21633;-75
2021/10/15 09:35:18;;;;;;;10.37;7.33;;;;;;;13.19;51.21;101228.50;1770085;80;21236;-74
2021/10/15 09:37:48;;;;;;;10.28;7.50;;;;;;;13.14;51.43;101223.92;1750008;79;21711;-73
2021/10/15 09:40:23;;;;;;;10.53;7.57;;;;;;;13.19;51.82;101219.91;1737247;80;21066;-72
2021/10/15 09:43:00;;;;;;;9.83;7.50;;;;;;;13.25;51.53;101213.55;1752597;80;22476;-72
2021/10/15 09:45:52;;;;;;;11.37;7.90;;;;;;;13.29;51.51;101207.97;1755747;80;21227;-73
2021/10/15 09:48:24;;;;;;;10.40;7.53;;;;;;;13.33;51.21;101203.69;1767491;79;21420;-73
2021/10/15 09:51:16;;;;;;;10.87;7.10;;;;;;;13.40;50.08;101200.78;1764268;79;21512;-73
2021/10/15 09:54:14;;;;;;;9.17;6.90;;;;;;;13.40;50.08;101200.78;1758085;80;21406;-73
2021/10/15 09:56:46;;;;;;;9.50;7.00;;;;;;;13.47;50.08;101202.69;1742103;80;21211;-72
2021/10/15 09:59:15;;;;;;;9.97;7.03;;;;;;;13.49;49.45;101201.91;1774112;80;21382;-73
2021/10/15 10:01:43;;;;;;;8.60;6.00;;;;;;;13.51;49.08;101194.92;1724086;80;22040;-75
2021/10/15 10:04:11;;;;;;;8.10;5.53;;;;;;;13.53;47.51;101191.45;1722802;81;21421;-73
2021/10/15 10:06:40;;;;;;;8.43;5.60;;;;;;;13.53;45.56;101190.92;1738469;81;21592;-73
2021/10/15 10:09:07;;;;;;;6.67;4.90;;;;;;;13.54;46.12;101181.78;1731253;82;21398;-73
2021/10/15 10:11:36;;;;;;;7.93;5.13;;;;;;;13.54;46.12;101181.78;1716418;80;21495;-74
2021/10/15 10:14:12;;;;;;;7.97;4.77;;;;;;;13.64;43.36;101172.97;1747967;80;21455;-73
2021/10/15 10:16:38;;;;;;;6.67;4.90;;;;;;;13.70;45.11;101179.19;1741595;82;21447;-74
2021/10/15 10:19:06;;;;;;;7.03;4.77;;;;;;;13.70;45.11;101179.19;1658467;82;21839;-74
2021/10/15 10:21:34;;;;;;;8.17;5.13;;;;;;;13.80;45.05;101169.82;1736656;80;21619;-73
2021/10/15 10:24:19;;;;;;;6.90;4.40;;;;;;;13.92;43.38;101171.75;1741796;80;21519;-73
2021/10/15 10:26:49;;;;;;;7.00;4.57;;;;;;;13.96;42.12;101172.83;1752796;81;22034;-73
2021/10/15 10:29:16;;;;;;;7.17;4.53;;;;;;;14.04;42.91;101171.50;1747230;81;21664;-73
2021/10/15 10:31:43;;;;;;;5.67;3.97;;;;;;;14.13;43.08;101162.39;1724872;81;22200;-73
2021/10/15 10:34:20;;;;;;;6.93;4.00;;;;;;;14.15;40.99;101162.41;1742364;82;21606;-73
2021/10/15 10:37:07;;;;;;;8.40;4.63;;;;;;;14.15;40.99;101162.41;1730639;80;21538;-74
2021/10/15 10:39:43;;;;;;;7.67;4.23;;;;;;;14.11;41.20;101150.55;1739673;81;21552;-73
2021/10/15 10:42:20;;;;;;;6.60;4.55;;;;;;;14.11;41.20;101150.55;1738360;81;21757;-72
2021/10/15 10:45:03;;;;;;;6.70;4.37;;;;;;;14.10;41.80;101149.49;1750327;81;21085;-74
2021/10/15 10:54:33;;;;;;;4.97;3.50;;;;;;;14.24;40.69;101139.83;1802249;78;22114;-73
2021/10/15 10:57:13;;;;;;;5.17;3.70;;;;;;;14.25;39.58;101129.38;1791678;78;22194;-74
2021/10/15 10:59:40;;;;;;;6.57;3.97;;;;;;;14.25;40.20;101136.89;1750631;80;21631;-73
2021/10/15 11:02:18;;;;;;;5.97;4.33;;;;;;;14.25;38.64;101156.24;1810668;78;21700;-72
2021/10/15 11:04:57;;;;;;;6.93;4.30;;;;;;;14.12;39.46;101136.07;1807473;78;21683;-73
2021/10/15 11:07:29;;;;;;;7.67;4.30;;;;;;;14.10;39.68;101138.75;1763583;80;21807;-75
2021/10/15 11:10:01;;;;;;;6.33;3.50;;;;;;;14.08;39.01;101132.28;1768700;79;21779;-73
2021/10/15 11:12:34;;;;;;;6.20;3.83;;;;;;;14.10;39.64;101131.48;1755206;81;21767;-71
2021/10/15 11:15:13;;;;;;;7.07;3.90;;;;;;;14.15;39.14;101123.96;1748027;79;21956;-74
2021/10/15 11:17:47;;;;;;;5.83;4.10;;;;;;;14.19;39.61;101126.41;1750042;81;21742;-73
2021/10/15 11:20:27;;;;;;;7.93;4.00;;;;;;;14.24;39.90;101127.20;1766753;79;21763;-74
2021/10/15 11:23:07;;;;;;;7.13;4.17;;;;;;;14.34;39.80;101143.88;1781490;80;22183;-74
2021/10/15 11:25:41;;;;;;;6.97;4.47;;;;;;;14.33;38.91;101124.00;1745142;79;21710;-73
2021/10/15 11:28:12;;;;;;;8.57;5.37;;;;;;;14.29;38.77;101123.73;1743677;79;21974;-73
2021/10/15 11:30:51;;;;;;;6.37;4.75;;;;;;;14.23;38.51;101118.08;1774496;78;21676;-75
2021/10/15 11:33:21;;;;;;;6.13;4.13;;;;;;;14.16;38.85;101110.82;1764294;80;21529;-74
2021/10/15 11:35:51;;;;;;;6.87;4.13;;;;;;;14.18;39.14;101101.42;1784455;80;21733;-73
2021/10/15 11:38:20;;;;;;;6.07;3.70;;;;;;;14.24;39.90;101098.19;1778033;80;21718;-73
2021/10/15 11:40:55;;;;;;;6.83;4.50;;;;;;;14.31;39.08;101091.49;1759539;80;22311;-75
2021/10/15 11:43:32;;;;;;;6.57;4.20;;;;;;;14.37;38.41;101086.09;1732489;80;21661;-74
2021/10/15 11:46:06;;;;;;;6.27;4.10;;;;;;;14.40;38.61;101086.36;1748533;80;21816;-72
2021/10/15 11:48:45;;;;;;;5.47;3.87;;;;;;;14.42;38.74;101090.95;1806986;78;22148;-72
2021/10/15 11:51:28;;;;;;;5.90;4.40;;;;;;;14.44;38.77;101083.94;1807718;78;21719;-71
2021/10/15 11:54:04;;;;;;;5.97;4.57;;;;;;;14.43;38.48;101089.06;1782195;79;21773;-73
2021/10/15 11:56:34;;;;;;;7.97;4.57;;;;;;;14.43;37.98;101092.55;1786756;78;21666;-72
2021/10/15 11:59:13;;;;;;;5.10;3.80;;;;;;;14.42;38.77;101092.83;1805439;78;21727;-73
2021/10/15 12:01:40;;;;;;;5.93;4.30;;;;;;;14.44;38.60;101098.18;1806612;78;21666;-74
2021/10/15 12:04:12;;;;;;;5.97;3.97;;;;;;;14.48;38.68;101078.31;1750034;81;21779;-73
2021/10/15 12:06:45;;;;;;;7.77;4.27;;;;;;;14.49;38.83;101084.75;1740512;80;21755;-73
2021/10/15 12:09:16;;;;;;;6.73;4.30;;;;;;;14.54;38.89;101080.77;1740473;80;21706;-72
2021/10/15 12:12:06;;;;;;;6.00;4.30;;;;;;;14.59;38.44;101081.28;1749222;81;21801;-72
2021/10/15 12:14:35;;;;;;;6.55;4.10;;;;;;;14.64;37.48;101085.84;1738369;81;21137;-73
2021/10/15 12:17:11;;;;;;;5.63;4.30;;;;;;;14.61;38.42;101080.48;1781662;79;21523;-74
2021/10/15 12:19:44;;;;;;;5.70;4.10;;;;;;;14.63;38.25;101083.69;1763426;80;22145;-73
2021/10/15 12:22:27;;;;;;;6.03;4.10;;;;;;;14.68;38.73;101086.39;1769627;79;21690;-75
2021/10/15 12:24:59;;;;;;;8.23;4.47;;;;;;;14.70;38.13;101069.97;1770281;79;21678;-74
2021/10/15 12:27:40;;;;;;;7.10;4.43;;;;;;;14.70;38.13;101069.97;1791104;79;21101;-75
2021/10/15 12:30:26;;;;;;;6.37;4.30;;;;;;;14.74;38.66;101079.09;1743235;81;22326;-74